createdAt,value
2019-03-11T00:01:53.431Z,100725
2019-03-11T00:04:23.111Z,100735
2019-03-11T00:06:51.172Z,100726
2019-03-11T00:09:20.064Z,100722
2019-03-11T00:11:48.926Z,100725
2019-03-11T00:14:17.835Z,100735
2019-03-11T00:16:46.674Z,100735
2019-03-11T00:19:15.551Z,100721
2019-03-11T00:21:44.428Z,100735
2019-03-11T00:24:13.283Z,100729
2019-03-11T00:26:42.133Z,100734
2019-03-11T00:29:11.045Z,100722
2019-03-11T00:31:39.862Z,100729
2019-03-11T00:34:08.726Z,100711
2019-03-11T00:36:37.599Z,100719
2019-03-11T00:39:07.218Z,100719
2019-03-11T00:41:36.071Z,100726
2019-03-11T00:44:04.936Z,100723
2019-03-11T00:46:33.854Z,100717
2019-03-11T00:49:02.704Z,100729
2019-03-11T00:51:31.564Z,100723
2019-03-11T00:54:01.176Z,100714
2019-03-11T00:56:30.795Z,100711
2019-03-11T00:58:59.672Z,100698
2019-03-11T01:01:28.534Z,100691
2019-03-11T01:03:57.416Z,100696
2019-03-11T01:06:26.265Z,100700
2019-03-11T01:08:55.148Z,100700
2019-03-11T01:11:24.004Z,100679
2019-03-11T01:13:52.910Z,100690
2019-03-11T01:16:21.772Z,100694
2019-03-11T01:18:50.639Z,100678
2019-03-11T01:21:19.512Z,100675
2019-03-11T01:23:48.375Z,100682
2019-03-11T01:26:17.288Z,100678
2019-03-11T01:28:46.142Z,100674
2019-03-11T01:31:15.793Z,100671
2019-03-11T01:33:44.620Z,100668
2019-03-11T01:36:13.484Z,100659
2019-03-11T01:38:42.374Z,100649
2019-03-11T01:41:11.232Z,100637
2019-03-11T01:43:40.101Z,100632
2019-03-11T01:46:09.700Z,100623
2019-03-11T01:48:38.607Z,100624
2019-03-11T01:51:07.445Z,100618
2019-03-11T01:53:36.326Z,100603
2019-03-11T01:56:05.194Z,100597
2019-03-11T01:58:34.096Z,100605
2019-03-11T02:01:02.967Z,100601
2019-03-11T02:03:31.824Z,100596
2019-03-11T02:06:01.449Z,100596
2019-03-11T02:08:30.319Z,100579
2019-03-11T02:10:59.210Z,100589
2019-03-11T02:13:28.836Z,100572
2019-03-11T02:15:58.480Z,100567
2019-03-11T02:18:27.300Z,100561
2019-03-11T02:20:56.197Z,100558
2019-03-11T02:23:25.068Z,100570
2019-03-11T02:25:53.935Z,100561
2019-03-11T02:28:22.811Z,100545
2019-03-11T02:30:51.678Z,100558
2019-03-11T02:33:20.659Z,100553
2019-03-11T02:35:49.424Z,100560
2019-03-11T02:38:18.289Z,100543
2019-03-11T02:40:47.133Z,100545
2019-03-11T02:43:16.007Z,100539
2019-03-11T02:45:44.870Z,100547
2019-03-11T02:48:13.740Z,100528
2019-03-11T02:50:42.622Z,100523
2019-03-11T02:53:11.509Z,100526
2019-03-11T02:55:40.373Z,100521
2019-03-11T02:58:09.232Z,100518
2019-03-11T03:00:38.181Z,100513
2019-03-11T03:03:11.729Z,100520
2019-03-11T03:05:40.606Z,100541
2019-03-11T03:08:09.447Z,100521
2019-03-11T03:10:38.366Z,100512
2019-03-11T03:13:07.528Z,100512
2019-03-11T03:15:37.172Z,100518
2019-03-11T03:18:06.016Z,100517
2019-03-11T03:20:34.889Z,100523
2019-03-11T03:23:03.781Z,100526
2019-03-11T03:25:34.751Z,100523
2019-03-11T03:28:01.672Z,100526
2019-03-11T03:30:30.420Z,100511
2019-03-11T03:32:59.293Z,100508
2019-03-11T03:35:28.174Z,100491
2019-03-11T03:37:57.052Z,100481
2019-03-11T03:40:25.957Z,100484
2019-03-11T03:42:55.678Z,100475
2019-03-11T03:45:24.421Z,100476
2019-03-11T03:47:54.030Z,100466
2019-03-11T03:50:23.928Z,100462
2019-03-11T03:52:52.964Z,100463
2019-03-11T03:55:21.869Z,100461
2019-03-11T03:57:50.736Z,100470
2019-03-11T04:00:19.648Z,100461
2019-03-11T04:02:48.513Z,100467
2019-03-11T04:05:17.429Z,100479
2019-03-11T04:07:46.323Z,100458
2019-03-11T04:12:55.201Z,100453
2019-03-11T04:15:24.072Z,100467
2019-03-11T04:17:52.928Z,100461
2019-03-11T04:20:22.777Z,100464
2019-03-11T04:22:51.647Z,100471
2019-03-11T04:25:20.524Z,100463
2019-03-11T04:27:49.380Z,100481
2019-03-11T04:30:24.001Z,100511
2019-03-11T04:32:52.833Z,100439
2019-03-11T04:35:21.712Z,100463
2019-03-11T04:37:50.567Z,100483
2019-03-11T04:40:19.418Z,100478
2019-03-11T04:42:48.289Z,100485
2019-03-11T04:45:17.175Z,100483
2019-03-11T04:47:46.144Z,100476
2019-03-11T04:50:16.741Z,100503
2019-03-11T04:52:45.629Z,100525
2019-03-11T04:55:14.493Z,100516
2019-03-11T04:57:43.378Z,100523
2019-03-11T05:00:12.357Z,100523
2019-03-11T05:02:41.306Z,100523
2019-03-11T05:05:10.327Z,100524
2019-03-11T05:07:39.270Z,100521
2019-03-11T05:10:08.208Z,100509
2019-03-11T05:12:37.088Z,100500
2019-03-11T05:15:06.895Z,100512
2019-03-11T05:17:36.221Z,100499
2019-03-11T05:20:06.015Z,100497
2019-03-11T05:22:34.895Z,100503
2019-03-11T05:25:03.942Z,100502
2019-03-11T05:27:33.015Z,100496
2019-03-11T05:30:01.905Z,100491
2019-03-11T05:32:30.888Z,100510
2019-03-11T05:34:59.816Z,100514
2019-03-11T05:37:28.773Z,100495
2019-03-11T05:39:57.637Z,100504
2019-03-11T05:42:26.543Z,100506
2019-03-11T05:44:55.433Z,100519
2019-03-11T05:47:25.056Z,100532
2019-03-11T05:49:54.655Z,100542
2019-03-11T05:52:23.509Z,100538
2019-03-11T05:54:52.421Z,100542
2019-03-11T05:57:21.331Z,100541
2019-03-11T05:59:50.184Z,100537
2019-03-11T06:02:19.117Z,100546
2019-03-11T06:04:48.745Z,100545
2019-03-11T06:07:17.624Z,100544
2019-03-11T06:09:46.530Z,100538
2019-03-11T06:12:15.409Z,100535
2019-03-11T06:14:44.275Z,100539
2019-03-11T06:17:13.729Z,100547
2019-03-11T06:19:42.613Z,100544
2019-03-11T06:22:11.497Z,100541
2019-03-11T06:24:40.386Z,100546
2019-03-11T06:27:09.261Z,100536
2019-03-11T06:29:38.142Z,100539
2019-03-11T06:32:07.157Z,100545
2019-03-11T06:34:36.747Z,100546
2019-03-11T06:37:05.654Z,100547
2019-03-11T06:39:34.616Z,100556
2019-03-11T06:42:03.467Z,100551
2019-03-11T06:44:32.467Z,100560
2019-03-11T06:47:01.436Z,100563
2019-03-11T06:49:30.333Z,100540
2019-03-11T06:51:59.291Z,100544
2019-03-11T06:54:28.294Z,100552
2019-03-11T06:56:57.135Z,100560
2019-03-11T06:59:26.060Z,100560
2019-03-11T07:01:54.984Z,100554
2019-03-11T07:04:24.011Z,100582
2019-03-11T07:06:52.857Z,100586
2019-03-11T07:09:21.817Z,100587
2019-03-11T07:11:50.618Z,100592
2019-03-11T07:14:19.751Z,100597
2019-03-11T07:16:48.739Z,100600
2019-03-11T07:19:17.718Z,100601
2019-03-11T07:21:46.573Z,100597
2019-03-11T07:24:15.459Z,100600
2019-03-11T07:26:44.391Z,100609
2019-03-11T07:29:13.301Z,100623
2019-03-11T07:31:42.207Z,100625
2019-03-11T07:34:11.143Z,100610
2019-03-11T07:36:40.975Z,100619
2019-03-11T07:39:10.141Z,100616
2019-03-11T07:41:39.108Z,100625
2019-03-11T07:44:08.925Z,100624
2019-03-11T07:46:38.606Z,100624
2019-03-11T07:49:08.335Z,100633
2019-03-11T07:51:37.630Z,100622
2019-03-11T07:54:06.633Z,100629
2019-03-11T07:56:35.854Z,100622
2019-03-11T07:59:04.739Z,100619
2019-03-11T08:01:33.809Z,100621
2019-03-11T08:04:02.787Z,100645
2019-03-11T08:06:31.993Z,100652
2019-03-11T08:09:01.305Z,100653
2019-03-11T08:11:31.494Z,100653
2019-03-11T08:14:00.006Z,100652
2019-03-11T08:16:28.883Z,100652
2019-03-11T08:18:58.021Z,100659
2019-03-11T08:21:26.997Z,100667
2019-03-11T08:23:55.959Z,100651
2019-03-11T08:26:24.977Z,100657
2019-03-11T08:28:54.913Z,100656
2019-03-11T08:31:23.859Z,100657
2019-03-11T08:33:53.069Z,100655
2019-03-11T08:36:22.062Z,100670
2019-03-11T08:38:50.979Z,100665
2019-03-11T08:41:19.870Z,100669
2019-03-11T08:43:48.978Z,100664
2019-03-11T08:46:18.707Z,100664
2019-03-11T08:48:47.597Z,100657
2019-03-11T08:51:16.485Z,100659
2019-03-11T08:53:45.371Z,100658
2019-03-11T08:56:14.441Z,100660
2019-03-11T08:58:43.489Z,100665
2019-03-11T09:01:12.387Z,100666
2019-03-11T09:03:41.615Z,100674
2019-03-11T09:06:10.495Z,100675
2019-03-11T09:08:39.361Z,100681
2019-03-11T09:11:08.515Z,100664
2019-03-11T09:13:37.459Z,100660
2019-03-11T09:16:07.383Z,100660
2019-03-11T09:18:37.118Z,100660
2019-03-11T09:21:06.281Z,100671
2019-03-11T09:23:35.297Z,100675
2019-03-11T09:26:04.605Z,100673
2019-03-11T09:28:33.580Z,100683
2019-03-11T09:31:02.609Z,100691
2019-03-11T09:33:31.491Z,100700
2019-03-11T09:36:00.380Z,100695
2019-03-11T09:38:29.268Z,100698
2019-03-11T09:40:58.179Z,100700
2019-03-11T09:43:27.409Z,100708
2019-03-11T09:45:56.326Z,100703
2019-03-11T09:48:25.360Z,100690
2019-03-11T09:50:54.495Z,100696
2019-03-11T09:53:23.487Z,100703
2019-03-11T09:55:52.594Z,100698
2019-03-11T09:58:22.387Z,100696
2019-03-11T10:00:51.391Z,100689
2019-03-11T10:03:21.006Z,100699
2019-03-11T10:05:50.913Z,100697
2019-03-11T10:08:20.544Z,100692
2019-03-11T10:10:49.691Z,100707
2019-03-11T10:13:18.706Z,100722
2019-03-11T10:15:47.806Z,100704
2019-03-11T10:18:16.701Z,100704
2019-03-11T10:20:45.573Z,100705
2019-03-11T10:23:14.569Z,100715
2019-03-11T10:25:44.501Z,100717
2019-03-11T10:28:13.951Z,100725
2019-03-11T10:30:42.852Z,100730
2019-03-11T10:33:11.856Z,100736
2019-03-11T10:35:40.806Z,100733
2019-03-11T10:38:09.857Z,100745
2019-03-11T10:40:38.750Z,100742
2019-03-11T10:43:07.959Z,100739
2019-03-11T10:45:36.922Z,100749
2019-03-11T10:48:05.809Z,100755
2019-03-11T10:50:35.499Z,100758
2019-03-11T10:53:05.319Z,100759
2019-03-11T10:55:34.280Z,100774
2019-03-11T10:58:03.245Z,100776
2019-03-11T11:00:32.339Z,100784
2019-03-11T11:03:01.378Z,100781
2019-03-11T11:05:30.260Z,100788
2019-03-11T11:07:59.186Z,100798
2019-03-11T11:10:28.208Z,100797
2019-03-11T11:12:57.461Z,100790
2019-03-11T11:15:28.184Z,100776
2019-03-11T11:17:57.168Z,100786
2019-03-11T11:20:26.114Z,100798
2019-03-11T11:22:55.160Z,100803
2019-03-11T11:25:24.864Z,100793
2019-03-11T11:27:54.058Z,100791
2019-03-11T11:33:02.238Z,100797
2019-03-11T11:35:31.315Z,100799
2019-03-11T11:38:01.237Z,100797
2019-03-11T11:40:30.260Z,100802
2019-03-11T11:42:59.069Z,100799
2019-03-11T11:45:28.171Z,100818
2019-03-11T11:47:58.111Z,100810
2019-03-11T11:50:27.071Z,100810
2019-03-11T11:52:56.558Z,100808
2019-03-11T11:55:25.627Z,100821
2019-03-11T11:57:55.449Z,100820
2019-03-11T12:00:26.152Z,100819
2019-03-11T12:02:55.842Z,100822
2019-03-11T12:05:25.660Z,100819
2019-03-11T12:07:55.348Z,100809
2019-03-11T12:10:25.370Z,100823
2019-03-11T12:12:54.486Z,100821
2019-03-11T12:15:24.387Z,100837
2019-03-11T12:17:54.059Z,100831
2019-03-11T12:20:26.836Z,100833
2019-03-11T12:22:55.748Z,100819
2019-03-11T12:25:24.635Z,100826
2019-03-11T12:27:54.557Z,100832
2019-03-11T12:30:24.488Z,100821
2019-03-11T12:32:53.802Z,100837
2019-03-11T12:35:22.662Z,100846
2019-03-11T12:37:51.560Z,100844
2019-03-11T12:40:20.599Z,100845
2019-03-11T12:42:49.671Z,100856
2019-03-11T12:45:21.652Z,100856
2019-03-11T12:47:50.503Z,100860
2019-03-11T12:50:23.433Z,100857
2019-03-11T12:52:52.794Z,100875
2019-03-11T12:55:22.007Z,100876
2019-03-11T12:57:50.595Z,100876
2019-03-11T13:00:20.964Z,100868
2019-03-11T13:02:49.819Z,100866
2019-03-11T13:05:18.659Z,100877
2019-03-11T13:07:47.504Z,100876
2019-03-11T13:12:59.582Z,100881
2019-03-11T13:15:28.394Z,100877
2019-03-11T13:17:57.241Z,100878
2019-03-11T13:20:31.556Z,100882
2019-03-11T13:23:00.428Z,100892
2019-03-11T13:25:29.274Z,100885
2019-03-11T13:27:58.118Z,100889
2019-03-11T13:30:27.251Z,100897
2019-03-11T13:32:55.932Z,100885
2019-03-11T13:35:24.962Z,100894
2019-03-11T13:37:54.306Z,100888
2019-03-11T13:40:23.152Z,100908
2019-03-11T13:42:52.006Z,100913
2019-03-11T13:45:21.586Z,100892
2019-03-11T13:47:50.470Z,100900
2019-03-11T13:50:19.297Z,100908
2019-03-11T13:52:48.916Z,100908
2019-03-11T13:55:17.738Z,100917
2019-03-11T13:57:46.599Z,100911
2019-03-11T14:00:15.504Z,100901
2019-03-11T14:02:44.320Z,100903
2019-03-11T14:05:13.207Z,100925
2019-03-11T14:07:42.020Z,100913
2019-03-11T14:10:11.839Z,100921
2019-03-11T14:12:40.655Z,100924
2019-03-11T14:15:15.556Z,100927
2019-03-11T14:17:45.195Z,100936
2019-03-11T14:20:14.056Z,100946
2019-03-11T14:22:42.910Z,100950
2019-03-11T14:25:11.952Z,100946
2019-03-11T14:27:40.744Z,100962
2019-03-11T14:30:14.261Z,100957
2019-03-11T14:32:43.120Z,100960
2019-03-11T14:35:12.716Z,100975
2019-03-11T14:37:42.358Z,100977
2019-03-11T14:40:13.729Z,100976
2019-03-11T14:42:42.596Z,100971
2019-03-11T14:45:12.293Z,100972
2019-03-11T14:47:41.191Z,100970
2019-03-11T14:50:10.750Z,100972
2019-03-11T14:52:39.608Z,100986
2019-03-11T14:55:09.251Z,100974
2019-03-11T14:57:38.108Z,100984
2019-03-11T15:02:45.466Z,100984
2019-03-11T15:05:15.866Z,100979
2019-03-11T15:07:44.736Z,100989
2019-03-11T15:10:13.583Z,100987
2019-03-11T15:12:42.470Z,100990
2019-03-11T15:15:14.972Z,100981
2019-03-11T15:17:43.787Z,100990
2019-03-11T15:20:12.691Z,100987
2019-03-11T15:22:41.542Z,100982
2019-03-11T15:25:11.108Z,100975
2019-03-11T15:27:40.698Z,100985
2019-03-11T15:30:12.966Z,100984
2019-03-11T15:32:41.806Z,100978
2019-03-11T15:35:11.412Z,100985
2019-03-11T15:37:40.256Z,100997
2019-03-11T15:40:10.760Z,100994
2019-03-11T15:42:39.622Z,100994
2019-03-11T15:45:08.479Z,100984
2019-03-11T15:47:38.160Z,100986
2019-03-11T15:50:08.881Z,101001
2019-03-11T15:52:35.866Z,100996
2019-03-11T15:55:04.735Z,100992
2019-03-11T15:57:38.988Z,101000
2019-03-11T16:00:02.452Z,100992
2019-03-11T16:02:31.306Z,101014
2019-03-11T16:05:00.936Z,101015
2019-03-11T16:07:29.759Z,101005
2019-03-11T16:09:58.647Z,101003
2019-03-11T16:12:27.494Z,101010
2019-03-11T16:14:56.321Z,101007
2019-03-11T16:17:25.176Z,101014
2019-03-11T16:19:54.024Z,101010
2019-03-11T16:22:26.127Z,101024
2019-03-11T16:24:51.702Z,101023
2019-03-11T16:27:20.561Z,101035
2019-03-11T16:29:49.398Z,101030
2019-03-11T16:32:18.304Z,101036
2019-03-11T16:34:47.130Z,101030
2019-03-11T16:37:15.976Z,101042
2019-03-11T16:39:44.823Z,101050
2019-03-11T16:42:13.921Z,101058
2019-03-11T16:44:42.777Z,101060
2019-03-11T16:47:11.665Z,101067
2019-03-11T16:49:40.466Z,101073
2019-03-11T16:52:09.322Z,101071
2019-03-11T16:54:38.172Z,101077
2019-03-11T16:57:07.011Z,101071
2019-03-11T16:59:35.849Z,101075
2019-03-11T17:02:04.704Z,101081
2019-03-11T17:04:33.566Z,101081
2019-03-11T17:07:02.406Z,101079
2019-03-11T17:09:31.983Z,101085
2019-03-11T17:12:00.823Z,101090
2019-03-11T17:14:29.656Z,101090
2019-03-11T17:16:58.508Z,101096
2019-03-11T17:19:27.366Z,101101
2019-03-11T17:21:56.959Z,101104
2019-03-11T17:24:26.400Z,101109
2019-03-11T17:26:55.255Z,101120
2019-03-11T17:29:24.102Z,101113
2019-03-11T17:31:52.934Z,101114
2019-03-11T17:34:22.573Z,101127
2019-03-11T17:36:51.408Z,101131
2019-03-11T17:39:20.260Z,101145
2019-03-11T17:41:49.118Z,101148
2019-03-11T17:44:18.706Z,101160
2019-03-11T17:46:47.592Z,101146
2019-03-11T17:49:16.461Z,101153
2019-03-11T17:51:45.258Z,101171
2019-03-11T17:54:14.098Z,101178
2019-03-11T17:56:42.945Z,101181
2019-03-11T17:59:11.793Z,101191
2019-03-11T18:01:40.670Z,101197
2019-03-11T18:04:09.515Z,101202
2019-03-11T18:06:38.443Z,101205
2019-03-11T18:09:07.288Z,101216
2019-03-11T18:11:36.140Z,101209
2019-03-11T18:14:04.993Z,101210
2019-03-11T18:16:34.591Z,101204
2019-03-11T18:19:03.439Z,101209
2019-03-11T18:21:32.291Z,101206
2019-03-11T18:24:01.147Z,101216
2019-03-11T18:26:30.074Z,101218
2019-03-11T18:28:58.843Z,101229
2019-03-11T18:31:27.719Z,101231
2019-03-11T18:33:56.598Z,101226
2019-03-11T18:36:25.411Z,101233
2019-03-11T18:38:54.252Z,101234
2019-03-11T18:41:23.115Z,101240
2019-03-11T18:43:52.654Z,101240
2019-03-11T18:46:21.505Z,101243
2019-03-11T18:48:50.345Z,101239
2019-03-11T18:51:19.205Z,101239
2019-03-11T18:53:48.037Z,101230
2019-03-11T18:56:16.898Z,101239
2019-03-11T18:58:45.715Z,101243
2019-03-11T19:01:14.564Z,101241
2019-03-11T19:03:43.397Z,101249
2019-03-11T19:06:12.286Z,101249
2019-03-11T19:08:41.140Z,101255
2019-03-11T19:11:09.980Z,101251
2019-03-11T19:13:38.817Z,101241
2019-03-11T19:16:07.678Z,101244
2019-03-11T19:18:37.272Z,101247
2019-03-11T19:21:06.240Z,101256
2019-03-11T19:23:35.744Z,101261
2019-03-11T19:26:04.578Z,101256
2019-03-11T19:28:33.487Z,101254
2019-03-11T19:31:03.059Z,101253
2019-03-11T19:33:31.920Z,101244
2019-03-11T19:36:00.744Z,101256
2019-03-11T19:38:29.583Z,101240
2019-03-11T19:40:58.446Z,101238
2019-03-11T19:43:29.286Z,101259
2019-03-11T19:45:56.175Z,101268
2019-03-11T19:48:25.042Z,101268
2019-03-11T19:50:53.886Z,101271
2019-03-11T19:53:23.459Z,101281
2019-03-11T19:55:52.303Z,101278
2019-03-11T19:58:21.153Z,101278
2019-03-11T20:00:50.752Z,101284
2019-03-11T20:03:26.963Z,101281
2019-03-11T20:05:48.501Z,101285
2019-03-11T20:08:17.334Z,101278
2019-03-11T20:10:46.949Z,101274
2019-03-11T20:13:15.800Z,101299
2019-03-11T20:15:44.704Z,101297
2019-03-11T20:18:13.592Z,101299
2019-03-11T20:20:43.171Z,101321
2019-03-11T20:23:12.097Z,101313
2019-03-11T20:25:40.895Z,101306
2019-03-11T20:28:09.823Z,101327
2019-03-11T20:30:38.690Z,101334
2019-03-11T20:33:07.651Z,101333
2019-03-11T20:35:36.355Z,101341
2019-03-11T20:38:05.237Z,101340
2019-03-11T20:40:34.096Z,101344
2019-03-11T20:43:03.146Z,101351
2019-03-11T20:45:32.702Z,101344
2019-03-11T20:48:01.585Z,101351
2019-03-11T20:50:41.440Z,101362
2019-03-11T20:53:00.002Z,101351
2019-03-11T20:55:28.890Z,101351
2019-03-11T20:57:57.833Z,101367
2019-03-11T21:00:26.625Z,101359
2019-03-11T21:02:55.430Z,101362
2019-03-11T21:08:04.656Z,101361
2019-03-11T21:10:33.490Z,101362
2019-03-11T21:13:02.351Z,101359
2019-03-11T21:15:31.382Z,101362
2019-03-11T21:18:00.823Z,101362
2019-03-11T21:20:29.728Z,101372
2019-03-11T21:22:58.546Z,101374
2019-03-11T21:25:27.475Z,101373
2019-03-11T21:27:56.215Z,101370
2019-03-11T21:30:25.074Z,101379
2019-03-11T21:32:53.929Z,101388
2019-03-11T21:35:22.785Z,101393
2019-03-11T21:37:51.678Z,101395
2019-03-11T21:40:22.418Z,101402
2019-03-11T21:42:51.338Z,101402
2019-03-11T21:45:32.908Z,101407
2019-03-11T21:47:51.162Z,101409
2019-03-11T21:50:20.227Z,101406
2019-03-11T21:52:49.076Z,101406
2019-03-11T21:55:17.923Z,101410
2019-03-11T21:57:46.707Z,101410
2019-03-11T22:00:28.417Z,101414
2019-03-11T22:02:48.001Z,101412
2019-03-11T22:07:37.716Z,101417
2019-03-11T22:10:06.554Z,101411
2019-03-11T22:12:36.135Z,101415
2019-03-11T22:15:04.983Z,101423
2019-03-11T22:17:35.491Z,101416
2019-03-11T22:20:02.731Z,101416
2019-03-11T22:22:31.561Z,101411
2019-03-11T22:25:00.410Z,101416
2019-03-11T22:27:29.239Z,101419
2019-03-11T22:29:58.082Z,101428
2019-03-11T22:32:26.939Z,101433
2019-03-11T22:34:55.773Z,101438
2019-03-11T22:37:24.629Z,101441
2019-03-11T22:39:53.455Z,101448
2019-03-11T22:42:22.303Z,101440
2019-03-11T22:44:51.152Z,101448
2019-03-11T22:47:19.991Z,101450
2019-03-11T22:49:49.531Z,101458
2019-03-11T22:52:19.089Z,101458
2019-03-11T22:54:47.927Z,101470
2019-03-11T22:57:16.773Z,101471
2019-03-11T22:59:45.617Z,101462
2019-03-11T23:02:14.510Z,101468
2019-03-11T23:04:43.296Z,101470
2019-03-11T23:07:12.152Z,101467
2019-03-11T23:09:41.733Z,101469
2019-03-11T23:12:10.571Z,101472
2019-03-11T23:14:39.407Z,101470
2019-03-11T23:17:08.253Z,101468
2019-03-11T23:19:37.083Z,101459
2019-03-11T23:22:05.923Z,101472
2019-03-11T23:24:34.763Z,101463
2019-03-11T23:27:03.676Z,101457
2019-03-11T23:29:33.200Z,101447
2019-03-11T23:32:02.775Z,101461
2019-03-11T23:34:31.621Z,101455
2019-03-11T23:37:00.469Z,101468
2019-03-11T23:39:29.321Z,101464
2019-03-11T23:41:58.156Z,101480
2019-03-11T23:44:27.737Z,101479
2019-03-11T23:46:56.570Z,101483
2019-03-11T23:49:25.407Z,101488
2019-03-11T23:51:54.246Z,101488
2019-03-11T23:54:23.071Z,101490
2019-03-11T23:56:51.897Z,101496
2019-03-11T23:59:21.477Z,101503
